createdAt,value
2022-10-13T00:01:09.072Z,15.24
2022-10-13T00:03:37.388Z,15.67
2022-10-13T00:06:07.027Z,15.77
2022-10-13T00:08:35.247Z,16.11
2022-10-13T00:11:11.488Z,14.86
2022-10-13T00:13:39.347Z,14.86
2022-10-13T00:16:07.579Z,14.29
2022-10-13T00:18:35.059Z,13.55
2022-10-13T00:21:07.909Z,13.01
2022-10-13T00:23:35.727Z,13.03
2022-10-13T00:26:07.879Z,12.81
2022-10-13T00:28:35.586Z,12.76
2022-10-13T00:31:03.992Z,12.04
2022-10-13T00:33:31.047Z,12.52
2022-10-13T00:35:58.053Z,11.82
2022-10-13T00:38:25.134Z,11.37
2022-10-13T00:41:03.952Z,11.62
2022-10-13T00:43:51.531Z,11.69
2022-10-13T00:46:18.611Z,10.77
2022-10-13T00:48:49.073Z,11.79
2022-10-13T00:51:21.375Z,12.00
2022-10-13T00:53:49.363Z,12.37
2022-10-13T00:56:18.651Z,11.54
2022-10-13T00:58:48.832Z,11.37
2022-10-13T01:01:17.494Z,11.19
2022-10-13T01:03:50.132Z,11.75
2022-10-13T01:06:23.425Z,11.31
2022-10-13T01:08:51.238Z,11.43
2022-10-13T01:11:38.683Z,11.51
2022-10-13T01:14:18.705Z,11.42
2022-10-13T01:16:57.630Z,11.03
2022-10-13T01:20:05.306Z,10.75
2022-10-13T01:22:47.783Z,11.32
2022-10-13T01:25:33.963Z,10.58
2022-10-13T01:28:26.143Z,10.66
2022-10-13T01:31:06.463Z,10.00
2022-10-13T01:33:43.501Z,10.70
2022-10-13T01:36:23.184Z,9.78
2022-10-13T01:39:02.024Z,10.03
2022-10-13T01:41:37.005Z,10.36
2022-10-13T01:44:15.643Z,10.75
2022-10-13T01:46:48.383Z,10.20
2022-10-13T01:49:19.434Z,10.19
2022-10-13T01:51:49.003Z,9.77
2022-10-13T01:54:16.184Z,8.21
2022-10-13T01:56:51.323Z,8.47
2022-10-13T01:59:18.463Z,7.81
2022-10-13T02:02:01.843Z,8.30
2022-10-13T02:04:45.322Z,7.75
2022-10-13T02:07:21.483Z,8.12
2022-10-13T02:10:00.607Z,7.32
2022-10-13T02:12:35.482Z,7.38
2022-10-13T02:15:05.822Z,7.59
2022-10-13T02:17:35.504Z,7.59
2022-10-13T02:20:07.649Z,7.21
2022-10-13T02:22:43.644Z,7.61
2022-10-13T02:25:10.945Z,8.37
2022-10-13T02:27:38.003Z,8.21
2022-10-13T02:30:06.301Z,8.12
2022-10-13T02:32:34.961Z,7.46
2022-10-13T02:35:01.985Z,8.04
2022-10-13T02:37:29.102Z,7.75
2022-10-13T02:39:56.205Z,7.58
2022-10-13T02:42:23.595Z,7.94
2022-10-13T02:44:50.786Z,7.60
2022-10-13T02:47:17.923Z,7.58
2022-10-13T02:49:46.463Z,7.37
2022-10-13T02:52:13.522Z,7.64
2022-10-13T02:54:40.503Z,7.44
2022-10-13T02:57:07.544Z,7.74
2022-10-13T02:59:34.583Z,7.69
2022-10-13T03:02:01.824Z,7.94
2022-10-13T03:04:29.043Z,7.71
2022-10-13T03:06:57.643Z,7.95
2022-10-13T03:09:24.662Z,7.79
2022-10-13T03:11:51.681Z,8.42
2022-10-13T03:14:18.762Z,7.61
2022-10-13T03:16:45.803Z,7.92
2022-10-13T03:19:13.084Z,7.49
2022-10-13T03:21:40.245Z,8.02
2022-10-13T03:24:09.053Z,8.96
2022-10-13T03:26:36.123Z,8.32
2022-10-13T03:29:03.184Z,8.36
2022-10-13T03:31:30.862Z,8.70
2022-10-13T03:33:57.902Z,8.27
2022-10-13T03:36:24.969Z,8.06
2022-10-13T03:38:52.082Z,8.54
2022-10-13T03:41:20.546Z,7.73
2022-10-13T03:43:47.725Z,8.19
2022-10-13T03:46:17.244Z,8.79
2022-10-13T03:48:44.323Z,7.96
2022-10-13T03:51:14.643Z,7.89
2022-10-13T03:53:41.771Z,7.17
2022-10-13T03:56:12.744Z,7.02
2022-10-13T03:58:41.403Z,6.99
2022-10-13T04:01:08.745Z,7.30
2022-10-13T04:03:35.844Z,7.19
2022-10-13T04:06:04.883Z,6.69
2022-10-13T04:08:34.225Z,6.62
2022-10-13T04:11:03.222Z,6.39
2022-10-13T04:13:30.383Z,6.43
2022-10-13T04:16:03.165Z,6.61
2022-10-13T04:18:30.365Z,6.10
2022-10-13T04:20:57.522Z,6.66
2022-10-13T04:23:24.943Z,6.23
2022-10-13T04:25:52.182Z,6.62
2022-10-13T04:28:19.321Z,6.41
2022-10-13T04:30:49.430Z,6.79
2022-10-13T04:33:18.282Z,7.11
2022-10-13T04:35:45.282Z,6.62
2022-10-13T04:38:12.344Z,6.52
2022-10-13T04:40:39.443Z,6.75
2022-10-13T04:43:06.523Z,6.66
2022-10-13T04:45:33.643Z,6.65
2022-10-13T04:48:01.443Z,6.38
2022-10-13T04:50:29.982Z,6.81
2022-10-13T04:52:57.043Z,6.85
2022-10-13T04:55:24.064Z,6.71
2022-10-13T04:57:51.343Z,6.70
2022-10-13T05:00:18.663Z,6.35
2022-10-13T05:02:46.283Z,6.32
2022-10-13T05:05:13.343Z,6.22
2022-10-13T05:07:41.884Z,6.12
2022-10-13T05:10:09.824Z,6.74
2022-10-13T05:12:37.062Z,6.93
2022-10-13T05:15:04.824Z,6.19
2022-10-13T05:17:35.241Z,6.11
2022-10-13T05:20:02.926Z,6.22
2022-10-13T05:22:29.963Z,6.38
2022-10-13T05:24:58.465Z,6.21
2022-10-13T05:27:25.524Z,6.01
2022-10-13T05:29:52.692Z,6.09
2022-10-13T05:32:19.933Z,6.06
2022-10-13T05:34:48.145Z,6.09
2022-10-13T05:37:15.283Z,6.26
2022-10-13T05:39:42.485Z,5.94
2022-10-13T05:42:11.284Z,5.81
2022-10-13T05:44:38.409Z,6.30
2022-10-13T05:47:07.690Z,5.76
2022-10-13T05:49:34.925Z,6.11
2022-10-13T05:52:06.705Z,5.97
2022-10-13T05:54:40.304Z,6.15
2022-10-13T05:57:15.944Z,6.07
2022-10-13T05:59:49.117Z,5.66
2022-10-13T06:02:20.449Z,6.01
2022-10-13T06:04:51.906Z,6.29
2022-10-13T06:07:19.864Z,6.60
2022-10-13T06:09:47.425Z,6.01
2022-10-13T06:12:16.004Z,5.63
2022-10-13T06:14:43.085Z,5.87
2022-10-13T06:17:10.144Z,5.78
2022-10-13T06:19:37.202Z,5.78
2022-10-13T06:22:04.283Z,5.65
2022-10-13T06:24:31.383Z,5.28
2022-10-13T06:26:58.544Z,5.23
2022-10-13T06:29:27.087Z,5.44
2022-10-13T06:31:54.205Z,5.44
2022-10-13T06:34:21.208Z,5.44
2022-10-13T06:36:48.264Z,5.53
2022-10-13T06:39:15.344Z,5.80
2022-10-13T06:41:42.424Z,5.91
2022-10-13T06:44:09.585Z,5.69
2022-10-13T06:46:38.184Z,5.53
2022-10-13T06:49:05.203Z,5.71
2022-10-13T06:51:32.584Z,5.99
2022-10-13T06:53:59.643Z,6.12
2022-10-13T06:56:26.745Z,6.41
2022-10-13T06:58:53.826Z,6.31
2022-10-13T07:01:21.105Z,6.40
2022-10-13T07:03:51.306Z,6.33
2022-10-13T07:06:19.243Z,6.11
2022-10-13T07:08:46.378Z,5.99
2022-10-13T07:11:16.114Z,5.48
2022-10-13T07:13:46.669Z,5.43
2022-10-13T07:16:14.988Z,5.41
2022-10-13T07:18:42.564Z,5.40
2022-10-13T07:21:11.187Z,5.45
2022-10-13T07:23:38.304Z,5.10
2022-10-13T07:26:08.085Z,5.13
2022-10-13T07:28:35.255Z,5.43
2022-10-13T07:31:07.852Z,5.24
2022-10-13T07:33:35.124Z,4.81
2022-10-13T07:36:02.167Z,4.93
2022-10-13T07:38:30.746Z,4.97
2022-10-13T07:41:01.077Z,4.40
2022-10-13T07:43:28.503Z,4.57
2022-10-13T07:45:55.665Z,4.49
2022-10-13T07:50:54.706Z,4.44
2022-10-13T07:53:22.008Z,4.55
2022-10-13T07:55:50.904Z,4.82
2022-10-13T07:58:17.984Z,4.57
2022-10-13T08:00:45.148Z,4.91
2022-10-13T08:03:12.246Z,4.53
2022-10-13T08:05:39.364Z,4.48
2022-10-13T08:08:06.482Z,4.53
2022-10-13T08:10:33.564Z,4.50
2022-10-13T08:13:02.044Z,4.55
2022-10-13T08:15:29.083Z,4.55
2022-10-13T08:17:56.144Z,4.64
2022-10-13T08:20:23.429Z,4.67
2022-10-13T08:22:51.663Z,4.59
2022-10-13T08:25:18.705Z,4.73
2022-10-13T08:27:50.946Z,4.46
2022-10-13T08:30:20.605Z,4.53
2022-10-13T08:32:47.807Z,4.92
2022-10-13T08:35:14.950Z,4.72
2022-10-13T08:37:42.104Z,4.50
2022-10-13T08:40:14.203Z,4.42
2022-10-13T08:42:44.103Z,4.53
2022-10-13T08:45:41.420Z,4.40
2022-10-13T08:48:15.823Z,4.46
2022-10-13T08:50:46.967Z,4.51
2022-10-13T08:53:25.084Z,4.71
2022-10-13T08:55:58.103Z,4.45
2022-10-13T08:58:28.623Z,4.87
2022-10-13T09:01:10.283Z,4.87
2022-10-13T09:03:48.205Z,4.92
2022-10-13T09:06:20.107Z,4.07
2022-10-13T09:08:53.428Z,4.34
2022-10-13T09:11:21.347Z,4.04
2022-10-13T09:13:48.624Z,4.39
2022-10-13T09:16:26.943Z,4.41
2022-10-13T09:18:53.993Z,4.05
2022-10-13T09:21:25.106Z,4.05
2022-10-13T09:23:53.353Z,4.11
2022-10-13T09:26:23.830Z,4.11
2022-10-13T09:28:52.112Z,4.06
2022-10-13T09:31:25.467Z,3.61
2022-10-13T09:34:00.551Z,3.98
2022-10-13T09:36:28.093Z,3.97
2022-10-13T09:39:15.125Z,4.08
2022-10-13T09:41:44.009Z,3.70
2022-10-13T09:44:14.825Z,3.90
2022-10-13T09:46:52.154Z,4.27
2022-10-13T09:49:35.104Z,4.22
2022-10-13T09:52:06.386Z,3.84
2022-10-13T09:54:45.974Z,3.75
2022-10-13T09:57:24.283Z,4.26
2022-10-13T09:59:53.319Z,4.01
2022-10-13T10:02:33.330Z,4.10
2022-10-13T10:05:07.093Z,3.82
2022-10-13T10:07:34.263Z,3.85
2022-10-13T10:10:05.503Z,4.01
2022-10-13T10:12:41.903Z,3.82
2022-10-13T10:15:20.745Z,4.28
2022-10-13T10:17:55.992Z,4.18
2022-10-13T10:20:54.462Z,4.20
2022-10-13T10:23:34.166Z,4.84
2022-10-13T10:26:10.283Z,4.57
2022-10-13T10:28:57.134Z,4.29
2022-10-13T10:31:53.205Z,4.36
2022-10-13T10:34:37.288Z,5.19
2022-10-13T10:37:21.197Z,5.31
2022-10-13T10:40:03.902Z,5.08
2022-10-13T10:43:18.364Z,5.51
2022-10-13T10:45:48.393Z,5.59
2022-10-13T10:48:23.200Z,5.88
2022-10-13T10:50:53.564Z,5.78
2022-10-13T10:53:34.225Z,5.56
2022-10-13T10:56:09.950Z,5.43
2022-10-13T10:58:48.365Z,6.30
2022-10-13T11:01:30.865Z,6.45
2022-10-13T11:04:35.590Z,6.31
2022-10-13T11:07:05.345Z,6.20
2022-10-13T11:10:09.587Z,6.65
2022-10-13T11:13:24.928Z,6.27
2022-10-13T11:15:52.325Z,7.63
2022-10-13T11:18:57.110Z,6.71
2022-10-13T11:21:24.249Z,6.48
2022-10-13T11:23:52.746Z,6.50
2022-10-13T11:26:40.525Z,6.50
2022-10-13T11:29:18.070Z,6.45
2022-10-13T11:31:50.805Z,6.85
2022-10-13T11:34:29.982Z,6.44
2022-10-13T11:36:59.906Z,6.53
2022-10-13T11:40:14.507Z,6.44
2022-10-13T11:43:29.066Z,6.39
2022-10-13T11:46:22.920Z,7.49
2022-10-13T11:49:31.627Z,7.17
2022-10-13T11:52:26.913Z,7.17
2022-10-13T11:55:01.948Z,6.68
2022-10-13T11:57:29.058Z,6.75
2022-10-13T11:59:57.248Z,6.67
2022-10-13T12:02:27.731Z,7.32
2022-10-13T12:05:04.049Z,6.86
2022-10-13T12:07:35.531Z,7.43
2022-10-13T12:10:07.443Z,7.86
2022-10-13T12:12:35.109Z,6.91
2022-10-13T12:15:05.971Z,6.75
2022-10-13T12:17:35.809Z,9.03
2022-10-13T12:20:21.049Z,11.02
2022-10-13T12:22:48.446Z,10.55
2022-10-13T12:25:17.606Z,9.58
2022-10-13T12:27:48.686Z,10.61
2022-10-13T12:30:24.709Z,10.71
2022-10-13T12:32:55.966Z,11.05
2022-10-13T12:35:26.473Z,12.57
2022-10-13T12:37:55.507Z,13.63
2022-10-13T12:40:24.504Z,14.45
2022-10-13T12:42:52.268Z,13.45
2022-10-13T12:45:23.328Z,12.58
2022-10-13T12:47:54.067Z,12.59
2022-10-13T12:50:23.546Z,12.31
2022-10-13T12:52:53.865Z,11.52
2022-10-13T12:55:23.565Z,12.21
2022-10-13T12:57:52.327Z,11.84
2022-10-13T13:00:24.286Z,9.71
2022-10-13T13:02:55.906Z,7.98
2022-10-13T13:05:30.965Z,9.39
2022-10-13T13:07:58.987Z,10.41
2022-10-13T13:10:26.147Z,10.34
2022-10-13T13:12:54.947Z,10.77
2022-10-13T13:15:37.255Z,10.63
2022-10-13T13:18:31.629Z,11.11
2022-10-13T13:20:59.046Z,11.07
2022-10-13T13:23:26.079Z,10.37
2022-10-13T13:26:13.876Z,9.37
2022-10-13T13:28:45.538Z,9.69
2022-10-13T13:31:14.351Z,9.99
2022-10-13T13:33:43.151Z,9.46
2022-10-13T13:36:15.949Z,10.05
2022-10-13T13:38:43.348Z,10.38
2022-10-13T13:41:11.308Z,9.42
2022-10-13T13:43:38.465Z,8.25
2022-10-13T13:46:07.466Z,9.85
2022-10-13T13:48:34.565Z,9.72
2022-10-13T13:51:03.148Z,10.11
2022-10-13T13:53:30.185Z,9.54
2022-10-13T13:55:57.370Z,9.70
2022-10-13T13:58:24.506Z,10.16
2022-10-13T14:00:51.568Z,10.28
2022-10-13T14:03:19.583Z,10.62
2022-10-13T14:05:46.710Z,9.90
2022-10-13T14:08:15.269Z,9.92
2022-10-13T14:10:42.325Z,10.08
2022-10-13T14:13:09.348Z,10.45
2022-10-13T14:15:36.387Z,10.26
2022-10-13T14:18:03.648Z,9.29
2022-10-13T14:20:30.666Z,9.00
2022-10-13T14:22:57.766Z,9.45
2022-10-13T14:25:26.352Z,8.82
2022-10-13T14:27:53.427Z,9.30
2022-10-13T14:30:20.702Z,9.73
2022-10-13T14:32:47.805Z,9.50
2022-10-13T14:35:14.948Z,9.32
2022-10-13T14:37:41.993Z,9.03
2022-10-13T14:40:10.105Z,9.55
2022-10-13T14:42:38.951Z,8.99
2022-10-13T14:45:07.152Z,9.16
2022-10-13T14:47:34.345Z,9.84
2022-10-13T14:50:01.446Z,9.40
2022-10-13T14:52:28.505Z,9.91
2022-10-13T14:54:55.587Z,10.83
2022-10-13T14:57:23.063Z,10.98
2022-10-13T14:59:51.970Z,10.71
2022-10-13T15:02:19.132Z,11.14
2022-10-13T15:04:46.186Z,10.75
2022-10-13T15:07:13.248Z,11.18
2022-10-13T15:09:53.128Z,11.54
2022-10-13T15:12:27.426Z,12.20
2022-10-13T15:14:56.033Z,12.80
2022-10-13T15:17:23.127Z,12.61
2022-10-13T15:19:50.166Z,12.24
2022-10-13T15:22:17.421Z,11.79
2022-10-13T15:24:44.488Z,13.03
2022-10-13T15:27:11.626Z,14.04
2022-10-13T15:29:38.791Z,13.31
2022-10-13T15:32:12.987Z,12.92
2022-10-13T15:34:40.232Z,12.12
2022-10-13T15:37:07.306Z,12.23
2022-10-13T15:39:34.588Z,11.40
2022-10-13T15:42:01.969Z,6.47
2022-10-13T15:44:40.300Z,6.77
2022-10-13T15:47:18.287Z,7.92
2022-10-13T15:49:45.388Z,9.09
2022-10-13T15:52:12.647Z,9.97
2022-10-13T15:54:40.067Z,10.34
2022-10-13T15:57:07.206Z,9.84
2022-10-13T15:59:34.226Z,9.72
2022-10-13T16:02:01.267Z,9.75
2022-10-13T16:04:34.798Z,9.86
2022-10-13T16:07:04.513Z,10.97
2022-10-13T16:09:31.689Z,12.09
2022-10-13T16:11:58.787Z,13.61
2022-10-13T16:14:25.949Z,12.69
2022-10-13T16:16:53.064Z,12.15
2022-10-13T16:19:20.425Z,11.85
2022-10-13T16:21:48.969Z,12.24
2022-10-13T16:24:16.097Z,12.18
2022-10-13T16:26:43.287Z,12.00
2022-10-13T16:29:10.388Z,13.19
2022-10-13T16:31:37.608Z,12.79
2022-10-13T16:34:04.706Z,12.15
2022-10-13T16:36:32.066Z,12.87
2022-10-13T16:39:00.627Z,14.24
2022-10-13T16:41:27.747Z,13.92
2022-10-13T16:43:55.548Z,13.01
2022-10-13T16:46:22.686Z,12.89
2022-10-13T16:48:49.806Z,12.82
2022-10-13T16:51:19.288Z,12.08
2022-10-13T16:53:49.008Z,11.70
2022-10-13T16:56:18.026Z,12.08
2022-10-13T16:58:45.119Z,12.19
2022-10-13T17:01:13.403Z,12.24
2022-10-13T17:03:44.221Z,12.41
2022-10-13T17:06:12.926Z,12.94
2022-10-13T17:08:40.348Z,13.08
2022-10-13T17:11:08.166Z,14.47
2022-10-13T17:13:36.787Z,14.83
2022-10-13T17:16:04.387Z,15.58
2022-10-13T17:18:31.568Z,15.44
2022-10-13T17:21:01.308Z,14.19
2022-10-13T17:23:30.511Z,12.93
2022-10-13T17:26:01.945Z,13.15
2022-10-13T17:28:29.240Z,12.24
2022-10-13T17:31:00.666Z,12.61
2022-10-13T17:33:28.404Z,12.90
2022-10-13T17:35:59.965Z,13.01
2022-10-13T17:38:27.466Z,13.42
2022-10-13T17:40:59.818Z,13.23
2022-10-13T17:43:27.403Z,13.55
2022-10-13T17:45:54.608Z,13.85
2022-10-13T17:48:23.333Z,13.83
2022-10-13T17:50:50.445Z,13.34
2022-10-13T17:53:17.598Z,13.94
2022-10-13T17:55:44.727Z,13.34
2022-10-13T17:58:11.790Z,13.23
2022-10-13T18:01:07.636Z,13.41
2022-10-13T18:03:27.545Z,13.49
2022-10-13T18:05:54.667Z,13.08
2022-10-13T18:08:21.685Z,13.08
2022-10-13T18:11:07.941Z,12.18
2022-10-13T18:13:36.285Z,13.09
2022-10-13T18:16:05.307Z,12.78
2022-10-13T18:18:33.936Z,14.37
2022-10-13T18:21:02.667Z,14.36
2022-10-13T18:23:30.944Z,13.54
2022-10-13T18:26:01.045Z,14.36
2022-10-13T18:28:29.907Z,14.28
2022-10-13T18:31:02.986Z,13.48
2022-10-13T18:33:30.205Z,13.51
2022-10-13T18:35:58.904Z,12.77
2022-10-13T18:38:26.483Z,11.99
2022-10-13T18:40:54.045Z,12.16
2022-10-13T18:43:21.103Z,12.20
2022-10-13T18:45:58.765Z,12.60
2022-10-13T18:48:26.023Z,13.27
2022-10-13T18:50:53.144Z,13.94
2022-10-13T18:53:21.733Z,14.03
2022-10-13T18:55:48.786Z,14.01
2022-10-13T18:58:15.847Z,13.25
2022-10-13T19:00:42.994Z,12.91
2022-10-13T19:03:10.047Z,14.17
2022-10-13T19:05:37.944Z,14.91
2022-10-13T19:08:05.445Z,14.72
2022-10-13T19:10:33.926Z,14.14
2022-10-13T19:13:01.026Z,14.47
2022-10-13T19:15:28.104Z,13.41
2022-10-13T19:17:55.144Z,14.45
2022-10-13T19:20:22.224Z,15.31
2022-10-13T19:22:49.268Z,14.31
2022-10-13T19:25:16.424Z,12.38
2022-10-13T19:27:45.186Z,12.61
2022-10-13T19:30:13.004Z,13.55
2022-10-13T19:32:40.455Z,12.30
2022-10-13T19:35:07.996Z,12.49
2022-10-13T19:37:36.348Z,12.06
2022-10-13T19:40:04.864Z,13.21
2022-10-13T19:42:32.864Z,13.53
2022-10-13T19:45:02.149Z,13.09
2022-10-13T19:47:29.616Z,12.71
2022-10-13T19:49:58.726Z,12.12
2022-10-13T19:52:26.564Z,11.42
2022-10-13T19:54:55.406Z,11.41
2022-10-13T19:57:22.941Z,11.33
2022-10-13T19:59:50.624Z,11.23
2022-10-13T20:02:19.187Z,11.53
2022-10-13T20:04:46.348Z,12.06
2022-10-13T20:07:13.664Z,11.72
2022-10-13T20:09:40.766Z,12.50
2022-10-13T20:12:08.266Z,11.76
2022-10-13T20:14:36.107Z,11.35
2022-10-13T20:17:03.607Z,11.32
2022-10-13T20:19:32.245Z,11.85
2022-10-13T20:21:59.577Z,11.77
2022-10-13T20:24:26.805Z,11.14
2022-10-13T20:26:53.944Z,11.49
2022-10-13T20:29:21.084Z,10.96
2022-10-13T20:31:48.165Z,8.96
2022-10-13T20:34:15.324Z,6.72
2022-10-13T20:36:43.784Z,5.87
2022-10-13T20:39:12.505Z,7.54
2022-10-13T20:41:39.767Z,7.85
2022-10-13T20:44:07.166Z,7.94
2022-10-13T20:46:34.593Z,8.21
2022-10-13T20:49:11.415Z,9.61
2022-10-13T20:51:40.405Z,10.07
2022-10-13T20:54:09.714Z,9.64
2022-10-13T20:56:37.287Z,9.50
2022-10-13T20:59:07.205Z,9.68
2022-10-13T21:01:35.388Z,9.38
2022-10-13T21:04:02.724Z,9.64
2022-10-13T21:06:30.264Z,9.99
2022-10-13T21:08:57.426Z,9.19
2022-10-13T21:11:26.045Z,9.25
2022-10-13T21:13:53.844Z,9.02
2022-10-13T21:16:23.484Z,9.04
2022-10-13T21:18:51.907Z,9.16
2022-10-13T21:21:21.845Z,8.98
2022-10-13T21:23:58.942Z,8.43
2022-10-13T21:26:30.731Z,8.76
2022-10-13T21:28:57.977Z,9.15
2022-10-13T21:31:27.605Z,9.15
2022-10-13T21:33:59.484Z,9.24
2022-10-13T21:36:29.524Z,8.82
2022-10-13T21:39:06.407Z,8.57
2022-10-13T21:41:57.786Z,8.41
2022-10-13T21:44:25.785Z,8.12
2022-10-13T21:46:53.644Z,8.48
2022-10-13T21:49:20.764Z,8.53
2022-10-13T21:51:47.805Z,8.32
2022-10-13T21:54:14.847Z,9.03
2022-10-13T21:56:44.165Z,8.54
2022-10-13T21:59:12.966Z,8.29
2022-10-13T22:01:40.166Z,8.47
2022-10-13T22:04:07.324Z,8.87
2022-10-13T22:06:34.689Z,8.58
2022-10-13T22:09:04.765Z,8.91
2022-10-13T22:11:34.706Z,8.90
2022-10-13T22:14:04.625Z,8.63
2022-10-13T22:16:34.123Z,8.68
2022-10-13T22:19:01.725Z,8.78
2022-10-13T22:21:31.244Z,9.42
2022-10-13T22:24:01.683Z,8.72
2022-10-13T22:26:30.825Z,8.85
2022-10-13T22:28:58.585Z,8.81
2022-10-13T22:31:27.964Z,9.70
2022-10-13T22:33:55.945Z,10.14
2022-10-13T22:36:25.445Z,10.50
2022-10-13T22:38:56.064Z,10.17
2022-10-13T22:41:23.705Z,10.64
2022-10-13T22:43:52.168Z,10.28
2022-10-13T22:46:21.783Z,10.10
2022-10-13T22:48:50.785Z,10.21
2022-10-13T22:51:20.393Z,9.65
2022-10-13T22:53:48.664Z,9.56
2022-10-13T22:56:18.145Z,10.10
2022-10-13T22:58:49.383Z,10.03
2022-10-13T23:01:17.465Z,9.59
2022-10-13T23:03:47.915Z,9.73
2022-10-13T23:06:20.284Z,9.67
2022-10-13T23:08:47.704Z,9.25
2022-10-13T23:11:15.543Z,9.76
2022-10-13T23:13:42.764Z,9.18
2022-10-13T23:16:13.503Z,9.28
2022-10-13T23:18:40.785Z,9.19
2022-10-13T23:21:10.982Z,8.75
2022-10-13T23:23:39.943Z,8.84
2022-10-13T23:26:09.104Z,8.88
2022-10-13T23:28:36.869Z,8.17
2022-10-13T23:31:07.083Z,8.65
2022-10-13T23:33:35.024Z,8.38
2022-10-13T23:36:03.643Z,8.67
2022-10-13T23:38:32.342Z,8.56
2022-10-13T23:41:05.864Z,8.60
2022-10-13T23:43:32.963Z,8.67
2022-10-13T23:46:00.344Z,8.61
2022-10-13T23:48:28.422Z,8.92
2022-10-13T23:50:55.943Z,8.46
2022-10-13T23:53:23.002Z,8.50
2022-10-13T23:55:50.123Z,9.48
2022-10-13T23:58:18.583Z,9.09
